M I D A S
Marine Information and Data Acquisition System
Tripno 272 of the Zeeleeuw from 2002-05-02 06:36:12 to 2002-05-02 16:54:28
Back to CruiseResearch ActivitiesStationsMapUnderway DataData graphs

EquipmentUnitsComment
TimeDGPSUTC
LatitudeDGPSDM.mWGS84
LongitudeDGPSDM.mWGS84
HeadingGyrodeg 
SOGDGPSknotsSpeed over ground
COGDGPSdegCourse over ground
DepthEcho soundermeters200 kHz
Missing or incorrect values are displayed as -999
Navigation data collected by the RV Zeeleeuw from 2002-05-02 06:36:12 to 2002-05-02 16:54:28
                                                                                    Next 1000 lines
Time Latitude Longitude Heading SOG COG Depth
2002-05-02 06:36:21 51°13.686 2°55.902 103 0.3 269.1 9.2
2002-05-02 06:36:25 51°13.686 2°55.901 102.2 0.5 274.8 9.2
2002-05-02 06:36:30 51°13.686 2°55.899 101.8 1 277.4 9.2
2002-05-02 06:36:35 51°13.687 2°55.895 101.7 1.3 278.2 9.5
2002-05-02 06:36:40 51°13.687 2°55.89 102 1.9 278 10.2
2002-05-02 06:36:47 51°13.688 2°55.883 102.2 2.3 278.7 -999
2002-05-02 06:36:51 51°13.688 2°55.878 102 2.5 279 -999
2002-05-02 06:36:57 51°13.689 2°55.871 101.5 2.8 279.7 -999
2002-05-02 06:37:01 51°13.69 2°55.866 100.8 2.9 279.2 -999
2002-05-02 06:37:07 51°13.69 2°55.858 100 3.1 278.4 -999
2002-05-02 06:37:11 51°13.691 2°55.853 99 3.2 277.8 -999
2002-05-02 06:37:16 51°13.691 2°55.845 98.2 3.3 276.4 -999
2002-05-02 06:37:21 51°13.692 2°55.838 97.3 3.3 275.2 -999
2002-05-02 06:37:27 51°13.692 2°55.829 96.5 3.3 274.2 -999
2002-05-02 06:37:31 51°13.693 2°55.823 96 3.4 273.5 -999
2002-05-02 06:37:36 51°13.693 2°55.815 95.7 3.5 273.1 -999
2002-05-02 06:37:41 51°13.694 2°55.807 95.3 3.6 273.1 -999
2002-05-02 06:37:47 51°13.694 2°55.797 95.2 3.7 272.8 -999
2002-05-02 06:37:51 51°13.694 2°55.791 95.3 3.7 272.5 -999
2002-05-02 06:37:56 51°13.694 2°55.783 95.5 3.6 272.5 -999
2002-05-02 06:38:01 51°13.695 2°55.776 95.5 3.5 272.4 -999
2002-05-02 06:38:06 51°13.695 2°55.768 95.5 3.4 272.5 14.4
2002-05-02 06:38:11 51°13.695 2°55.761 95.7 3.3 272.2 -999
2002-05-02 06:38:16 51°13.695 2°55.755 95.7 3.2 272.3 15.3
2002-05-02 06:38:20 51°13.695 2°55.749 95.7 3 271.7 14.2
2002-05-02 06:38:25 51°13.695 2°55.743 95.8 2.9 271.4 14
2002-05-02 06:38:30 51°13.695 2°55.737 96 2.9 271.1 13.3
2002-05-02 06:38:36 51°13.695 2°55.729 96.3 2.8 271.7 13.1
2002-05-02 06:38:40 51°13.696 2°55.725 96.7 2.7 272.4 14
2002-05-02 06:38:46 51°13.696 2°55.719 97 2.5 273.6 14.4
2002-05-02 06:38:50 51°13.696 2°55.716 96.2 1.7 273.6 14.3
2002-05-02 06:38:56 51°13.697 2°55.716 92.2 0.8 278.8 14.2
2002-05-02 06:39:01 51°13.698 2°55.719 85.2 0.7 64.1 14.3
2002-05-02 06:39:06 51°13.699 2°55.724 75.3 1.6 68.9 13.6
2002-05-02 06:39:11 51°13.7 2°55.728 65 2.3 61.3 14
2002-05-02 06:39:16 51°13.703 2°55.732 57.3 2.4 55.5 14
2002-05-02 06:39:20 51°13.704 2°55.735 50.7 2.4 49.3 14
2002-05-02 06:39:26 51°13.707 2°55.739 45.2 2.3 44.9 13.8
2002-05-02 06:39:30 51°13.709 2°55.741 41.8 2 40.7 13.7
2002-05-02 06:39:35 51°13.71 2°55.743 38.7 1.9 39.3 13.5
2002-05-02 06:39:40 51°13.711 2°55.744 35.5 1 39 13.5
2002-05-02 06:39:45 51°13.711 2°55.744 32.5 0.4 42.7 13.5
2002-05-02 06:39:50 51°13.71 2°55.743 30.8 0.5 201.6 13.5
2002-05-02 06:39:55 51°13.709 2°55.742 30.2 1.1 205.7 13.6
2002-05-02 06:40:00 51°13.707 2°55.74 29.8 1.6 207.7 13.8
2002-05-02 06:40:06 51°13.704 2°55.738 30.3 1.8 207.1 -999
2002-05-02 06:40:11 51°13.702 2°55.736 30.5 1.8 208.3 -999
2002-05-02 06:40:16 51°13.7 2°55.734 30.5 1.8 208.9 -999
2002-05-02 06:40:21 51°13.698 2°55.732 30.2 1.7 209.8 -999
2002-05-02 06:40:27 51°13.695 2°55.73 29.8 1.7 210.2 -999
2002-05-02 06:40:31 51°13.694 2°55.729 29.5 1.6 210.3 -999
2002-05-02 06:40:36 51°13.692 2°55.727 28.8 1.6 210.5 -999
2002-05-02 06:40:41 51°13.69 2°55.725 28.2 1.5 210.1 13.4
2002-05-02 06:40:46 51°13.688 2°55.724 27.5 1.5 209.5 14.3
2002-05-02 06:40:51 51°13.686 2°55.722 26.8 1.5 208.7 13.6
2002-05-02 06:40:56 51°13.684 2°55.721 26 1.4 208.4 13.5
2002-05-02 06:41:01 51°13.683 2°55.719 25.2 1.3 207.9 13.5
2002-05-02 06:41:05 51°13.682 2°55.719 24 1.2 207.9 13.9
2002-05-02 06:41:10 51°13.682 2°55.718 21.7 0.7 207.1 14
2002-05-02 06:41:16 51°13.681 2°55.718 18.3 0.5 210.5 13.9
2002-05-02 06:41:20 51°13.681 2°55.717 16 0.3 210.2 13.9
2002-05-02 06:41:26 51°13.68 2°55.717 13.7 0.3 213.9 13.9
2002-05-02 06:41:31 51°13.68 2°55.717 12 0.2 210.3 14
2002-05-02 06:41:36 51°13.68 2°55.716 10 0.2 218.6 14
2002-05-02 06:41:41 51°13.68 2°55.716 8.8 0.1 216.1 14
2002-05-02 06:41:45 51°13.68 2°55.716 7.3 0.1 241.3 14
2002-05-02 06:41:50 51°13.68 2°55.716 6.2   291.3 13.9
2002-05-02 06:41:56 51°13.68 2°55.716 4.8 0.1 310.6 13.8
2002-05-02 06:42:00 51°13.68 2°55.716 3.8 0.1 342.9 13.8
2002-05-02 06:42:06 51°13.681 2°55.716 2.7 0.2 346.5 13.8
2002-05-02 06:42:11 51°13.681 2°55.716 1.7 0.2 351.7 14
2002-05-02 06:42:16 51°13.682 2°55.716 0.7 0.3 353.1 14.1
2002-05-02 06:42:20 51°13.682 2°55.716 359.7 0.3 353.6 13.8
2002-05-02 06:42:25 51°13.683 2°55.716 358.5 0.4 352.8 13.6
2002-05-02 06:42:30 51°13.683 2°55.716 357.3 0.4 354 13.6
2002-05-02 06:42:36 51°13.684 2°55.716 356.2 0.4 353.1 13.7
2002-05-02 06:42:40 51°13.685 2°55.715 355.3 0.5 352.2 13.7
2002-05-02 06:42:46 51°13.686 2°55.715 354.5 0.5 351 13.6
2002-05-02 06:42:50 51°13.686 2°55.715 353.7 0.5 348.7 13.6
2002-05-02 06:42:56 51°13.687 2°55.714 353 0.6 347.4 13.6
2002-05-02 06:43:00 51°13.688 2°55.714 352.2 0.6 345.9 13.7
2002-05-02 06:43:06 51°13.689 2°55.713 351.5 0.6 344.8 13.8
2002-05-02 06:43:10 51°13.69 2°55.713 350.8 0.7 343.4 13.9
2002-05-02 06:43:16 51°13.691 2°55.712 350.2 0.7 342.7 14
2002-05-02 06:43:20 51°13.692 2°55.712 349.7 0.8 341.9 14.2
2002-05-02 06:43:26 51°13.693 2°55.711 349 0.8 341.2 14.4
2002-05-02 06:43:31 51°13.694 2°55.711 348.5 0.9 340.7 14.6
2002-05-02 06:43:35 51°13.695 2°55.71 348 0.9 340.7 14.5
2002-05-02 06:43:40 51°13.697 2°55.71 347.7 1 340.8 14.4
2002-05-02 06:43:46 51°13.699 2°55.708 347.2 1.1 340.9 14.3
2002-05-02 06:43:50 51°13.7 2°55.708 346.8 1.2 339.5 14.2
2002-05-02 06:43:56 51°13.702 2°55.706 346.3 1.3 339.3 14.3
2002-05-02 06:44:00 51°13.704 2°55.705 345.7 1.4 338.9 13.6
2002-05-02 06:44:06 51°13.706 2°55.704 345.2 1.5 338.5 13.2
2002-05-02 06:44:11 51°13.708 2°55.702 344.5 1.6 337.6 13.4
2002-05-02 06:44:16 51°13.71 2°55.701 343.7 1.7 337.4 13.2
2002-05-02 06:44:20 51°13.713 2°55.7 342.8 1.9 337.2 13.1
2002-05-02 06:44:26 51°13.716 2°55.697 342 2.2 337.1 13.2
2002-05-02 06:44:31 51°13.719 2°55.695 341.3 2.5 336.5 13.3
2002-05-02 06:44:36 51°13.723 2°55.692 340.8 2.7 336.3 13.1
2002-05-02 06:44:40 51°13.726 2°55.69 340.5 2.9 336 13
2002-05-02 06:44:45 51°13.73 2°55.687 340.3 3.1 336.2 12.9
2002-05-02 06:44:51 51°13.736 2°55.683 340.5 3.4 336.4 12.6
2002-05-02 06:44:56 51°13.74 2°55.68 341 3.6 336.8 12.4
2002-05-02 06:45:00 51°13.745 2°55.678 341.5 3.8 337.5 12
2002-05-02 06:45:05 51°13.75 2°55.674 342.3 4 338.1 12
2002-05-02 06:45:11 51°13.756 2°55.671 343 4.2 338.8 11.6
2002-05-02 06:45:16 51°13.762 2°55.667 343.7 4.3 339.3 11.8
2002-05-02 06:45:20 51°13.767 2°55.665 344.3 4.4 340.1 11.5
2002-05-02 06:45:25 51°13.773 2°55.661 345 4.6 340.4 11.6
2002-05-02 06:45:31 51°13.78 2°55.657 345.3 4.7 341.2 11.7
2002-05-02 06:45:36 51°13.787 2°55.654 345 4.8 341.3 11.6
2002-05-02 06:45:41 51°13.793 2°55.65 344.7 4.9 341.2 11.6
2002-05-02 06:45:45 51°13.799 2°55.647 344 5 340.9 11.6
2002-05-02 06:45:50 51°13.805 2°55.643 343.2 5.1 340.4 11.6
2002-05-02 06:45:56 51°13.813 2°55.638 342.2 5.2 339.6 11.5
2002-05-02 06:46:00 51°13.819 2°55.635 341.2 5.3 338.4 11.4
2002-05-02 06:46:06 51°13.827 2°55.629 340.3 5.3 337.7 11.4
2002-05-02 06:46:10 51°13.833 2°55.625 339.7 5.4 337 11.3
2002-05-02 06:46:16 51°13.841 2°55.62 339.3 5.4 336.6 11.2
2002-05-02 06:46:20 51°13.847 2°55.616 339.2 5.5 336.2 11
2002-05-02 06:46:25 51°13.854 2°55.611 339.3 5.5 336.1 10.9
2002-05-02 06:46:30 51°13.861 2°55.605 338.7 5.6 335.6 11
2002-05-02 06:46:36 51°13.869 2°55.599 337.8 5.6 335.2 10.9
2002-05-02 06:46:40 51°13.875 2°55.595 337 5.7 333.8 10.9
2002-05-02 06:46:45 51°13.882 2°55.589 337.3 5.7 333.8 10.6
2002-05-02 06:46:51 51°13.891 2°55.583 337.7 5.7 334.4 11
2002-05-02 06:46:56 51°13.898 2°55.577 338.7 5.8 335.1 11.2
2002-05-02 06:47:00 51°13.904 2°55.573 339.5 5.8 335.8 11.2
2002-05-02 06:47:05 51°13.911 2°55.568 340 5.8 336 11.2
2002-05-02 06:47:10 51°13.919 2°55.563 340.5 5.8 336.8 11.1
2002-05-02 06:47:15 51°13.926 2°55.558 341 5.8 337.3 11.2
2002-05-02 06:47:20 51°13.934 2°55.553 341.7 5.8 338 11.2
2002-05-02 06:47:26 51°13.943 2°55.548 342.2 5.8 338.6 10.7
2002-05-02 06:47:30 51°13.949 2°55.544 342.5 5.8 339.4 11.2
2002-05-02 06:47:36 51°13.958 2°55.539 342.7 5.9 339.5 11.1
2002-05-02 06:47:40 51°13.965 2°55.535 342.7 5.9 339.5 11.2
2002-05-02 06:47:45 51°13.972 2°55.53 342.2 5.9 339.3 11.3
2002-05-02 06:47:50 51°13.98 2°55.526 341.8 5.9 339 11.2
2002-05-02 06:47:56 51°13.989 2°55.52 341.7 5.9 339 11.6
2002-05-02 06:48:00 51°13.995 2°55.517 341.3 5.9 338.8 11.5
2002-05-02 06:48:05 51°14.003 2°55.512 341.2 5.9 338.6 11.6
2002-05-02 06:48:10 51°14.01 2°55.507 340.7 5.9 338 11.7
2002-05-02 06:48:16 51°14.019 2°55.501 340 5.9 337.6 11.6
2002-05-02 06:48:20 51°14.026 2°55.497 339.8 5.9 337.1 11.5
2002-05-02 06:48:26 51°14.035 2°55.491 340 5.9 337 11.5
2002-05-02 06:48:30 51°14.041 2°55.487 340.3 5.9 337 11.7
2002-05-02 06:48:36 51°14.05 2°55.48 340.7 6 337.3 11.7
2002-05-02 06:48:40 51°14.056 2°55.476 340.8 6 337.5 11.7
2002-05-02 06:48:46 51°14.066 2°55.47 341.2 6 337.7 11.5
2002-05-02 06:48:51 51°14.073 2°55.465 341.3 6 338 11.6
2002-05-02 06:48:56 51°14.081 2°55.461 341.5 6 337.9 11.6
2002-05-02 06:49:00 51°14.087 2°55.457 341.5 6 338.1 11.6
2002-05-02 06:49:06 51°14.096 2°55.451 341.3 6 338 11.6
2002-05-02 06:49:10 51°14.102 2°55.447 341.2 5.9 337.9 11.6
2002-05-02 06:49:16 51°14.112 2°55.441 341.3 5.9 338.1 11.6
2002-05-02 06:49:20 51°14.118 2°55.437 341.5 5.9 338.3 11.6
2002-05-02 06:49:26 51°14.127 2°55.431 341.5 5.9 338.4 11.7
2002-05-02 06:49:31 51°14.135 2°55.426 341.3 5.9 338.2 11.7
2002-05-02 06:49:36 51°14.142 2°55.421 341 5.9 337.6 11.7
2002-05-02 06:49:41 51°14.15 2°55.416 340.3 5.9 337.1 11.7
2002-05-02 06:49:45 51°14.156 2°55.412 339.2 5.9 336.4 11.6
2002-05-02 06:49:50 51°14.163 2°55.406 337.8 5.9 335 11.8
2002-05-02 06:49:56 51°14.172 2°55.399 336 5.9 333.8 11.8
2002-05-02 06:50:00 51°14.178 2°55.394 334.3 5.9 331.7 11.7
2002-05-02 06:50:06 51°14.186 2°55.386 333.2 5.9 330.5 11.6
2002-05-02 06:50:11 51°14.193 2°55.379 332.2 5.9 328.9 11.8
2002-05-02 06:50:16 51°14.2 2°55.372 331 5.9 328.2 11.7
2002-05-02 06:50:20 51°14.205 2°55.367 330.2 5.9 326.9 11.8
2002-05-02 06:50:26 51°14.214 2°55.358 329.5 5.9 326.3 11.8
2002-05-02 06:50:30 51°14.219 2°55.352 328 5.9 324.8 11.7
2002-05-02 06:50:36 51°14.227 2°55.342 326.2 5.9 323.6 11.8
2002-05-02 06:50:40 51°14.232 2°55.335 324.3 5.9 321.2 11.8
2002-05-02 06:50:45 51°14.238 2°55.327 322.2 5.9 319.8 11.9
2002-05-02 06:50:51 51°14.245 2°55.316 320.3 5.9 317.6 12
2002-05-02 06:50:56 51°14.251 2°55.307 318.7 5.9 316.3 12
2002-05-02 06:51:00 51°14.256 2°55.299 317.2 5.9 314.6 12
2002-05-02 06:51:05 51°14.261 2°55.29 316 6 313.6 11.8
2002-05-02 06:51:10 51°14.267 2°55.28 314.8 6 311.9 12
2002-05-02 06:51:15 51°14.272 2°55.269 313.7 6 310.8 11.7
2002-05-02 06:51:20 51°14.277 2°55.259 312.7 6 309.4 11.6
2002-05-02 06:51:26 51°14.284 2°55.247 312 6 308.8 11.7
2002-05-02 06:51:30 51°14.288 2°55.238 311.5 6 308.2 11.3
2002-05-02 06:51:36 51°14.294 2°55.225 310.8 6 307.7 11.6
2002-05-02 06:51:40 51°14.298 2°55.217 310.2 6.1 306.7 11.3
2002-05-02 06:51:46 51°14.304 2°55.204 309.3 6.1 306 11.3
2002-05-02 06:51:51 51°14.309 2°55.193 308.5 6.1 305.1 11.9
2002-05-02 06:51:56 51°14.313 2°55.181 307.7 6.1 304.2 11.5
2002-05-02 06:52:01 51°14.318 2°55.17 307.2 6.1 303.6 11.6
2002-05-02 06:52:06 51°14.322 2°55.159 307.2 6.1 303.2 11.6
2002-05-02 06:52:10 51°14.326 2°55.149 307.2 6.1 303.1 11.6
2002-05-02 06:52:15 51°14.331 2°55.138 306.8 6.1 302.7 11.4
2002-05-02 06:52:20 51°14.336 2°55.127 306.2 6.2 302.6 11.3
2002-05-02 06:52:25 51°14.34 2°55.115 305.5 6.2 301.8 11.2
2002-05-02 06:52:31 51°14.346 2°55.101 305 6.2 301.5 11.1
2002-05-02 06:52:36 51°14.35 2°55.089 304.3 6.3 301.2 11.2
2002-05-02 06:52:40 51°14.354 2°55.079 304 6.5 300.9 11.7
2002-05-02 06:52:45 51°14.359 2°55.065 303.5 6.8 300.3 11.3
2002-05-02 06:52:51 51°14.365 2°55.047 303.3 7.5 299.8 11.1
2002-05-02 06:52:55 51°14.37 2°55.034 303.2 8.1 299.5 11
2002-05-02 06:53:00 51°14.376 2°55.017 303.2 8.8 299 10.8
2002-05-02 06:53:06 51°14.384 2°54.994 303 9.5 298.9 10.8
2002-05-02 06:53:11 51°14.39 2°54.974 302.5 10 298.3 10.8
2002-05-02 06:53:15 51°14.396 2°54.957 301.8 10.5 297.9 10.9
2002-05-02 06:53:20 51°14.403 2°54.936 301.3 10.7 297.5 10.9
2002-05-02 06:53:25 51°14.41 2°54.914 301.7 11.1 297.2 11
2002-05-02 06:53:31 51°14.419 2°54.887 302.8 11.5 297.8 11
2002-05-02 06:53:36 51°14.427 2°54.864 302.8 11.6 298.3 10.9
2002-05-02 06:53:40 51°14.434 2°54.845 304 11.9 298.7 11
2002-05-02 06:53:45 51°14.442 2°54.822 304.5 12 299.6 11
2002-05-02 06:53:50 51°14.45 2°54.799 305 12.1 299.9 11
2002-05-02 06:53:56 51°14.461 2°54.771 305.2 12.1 300.4 11
2002-05-02 06:54:01 51°14.469 2°54.748 305.2 12.2 300.5 11
2002-05-02 06:54:06 51°14.478 2°54.725 305.3 12.2 300.7 11
2002-05-02 06:54:10 51°14.485 2°54.706 305.3 12.3 300.6 10.9
2002-05-02 06:54:15 51°14.494 2°54.683 305.2 12.3 300.8 11
2002-05-02 06:54:21 51°14.504 2°54.656 305.2 12.2 300.9 10.9
2002-05-02 06:54:26 51°14.513 2°54.632 305.2 12.2 301 10.9
2002-05-02 06:54:30 51°14.52 2°54.614 305 12.2 300.8 10.9
2002-05-02 06:54:36 51°14.53 2°54.586 304.5 12.2 300.7 10.9
2002-05-02 06:54:40 51°14.537 2°54.567 304.7 12.2 300.5 10.9
2002-05-02 06:54:46 51°14.547 2°54.539 304.3 12.2 300.4 10.9
2002-05-02 06:54:50 51°14.555 2°54.521 304.2 12.2 300.3 11
2002-05-02 06:54:55 51°14.563 2°54.498 304.2 12.2 300.3 11
2002-05-02 06:55:00 51°14.572 2°54.475 304.3 12.2 300.6 11
2002-05-02 06:55:06 51°14.582 2°54.447 304.2 12.2 300.6 10.9
2002-05-02 06:55:10 51°14.589 2°54.429 304.7 12.2 301.1 11
2002-05-02 06:55:16 51°14.6 2°54.401 304.2 12.1 301.2 11
2002-05-02 06:55:21 51°14.608 2°54.378 304 12.1 300.9 11.1
2002-05-02 06:55:26 51°14.617 2°54.355 304 12.1 300.9 11.1
2002-05-02 06:55:30 51°14.624 2°54.337 304 12.1 300.7 11.1
2002-05-02 06:55:36 51°14.634 2°54.309 303.8 12.1 300.4 11.1
2002-05-02 06:55:40 51°14.641 2°54.29 304 12.2 300.2 11.2
2002-05-02 06:55:46 51°14.651 2°54.263 304 12.2 300.3 11.1
2002-05-02 06:55:50 51°14.658 2°54.244 304.5 12.2 300.5 11.2
2002-05-02 06:55:56 51°14.669 2°54.216 304.5 12.2 300.9 11.2
2002-05-02 06:56:00 51°14.676 2°54.198 304.5 12.2 300.9 11.2
2002-05-02 06:56:06 51°14.686 2°54.171 304.7 12.2 301.1 11.1
2002-05-02 06:56:10 51°14.693 2°54.152 304.5 12.2 301.2 11.1
2002-05-02 06:56:16 51°14.704 2°54.125 304.7 12.2 301.5 11
2002-05-02 06:56:20 51°14.711 2°54.106 304.3 12.2 301.5 11
2002-05-02 06:56:26 51°14.722 2°54.079 304.7 12.2 301.7 10.9
2002-05-02 06:56:30 51°14.729 2°54.06 304.2 12.2 301.7 10.9
2002-05-02 06:56:36 51°14.74 2°54.033 304.5 12.2 302 10.9
2002-05-02 06:56:41 51°14.748 2°54.011 304.2 12.1 302 10.9
2002-05-02 06:56:46 51°14.757 2°53.988 304.5 12.1 302.3 10.7
2002-05-02 06:56:50 51°14.765 2°53.97 304.2 12.1 302.3 10.8
2002-05-02 06:56:56 51°14.775 2°53.943 304.7 12.1 302.6 10.8
2002-05-02 06:57:00 51°14.783 2°53.925 304.3 12 302.5 11
2002-05-02 06:57:06 51°14.793 2°53.898 304.5 12 302.3 10.8
2002-05-02 06:57:11 51°14.802 2°53.876 303.7 12 301.7 10.6
2002-05-02 06:57:16 51°14.81 2°53.852 301.3 12 299.5 10.6
2002-05-02 06:57:20 51°14.816 2°53.834 300.3 12 298.4 10.6
2002-05-02 06:57:26 51°14.824 2°53.805 299.2 12 297.2 10.6
2002-05-02 06:57:31 51°14.832 2°53.781 298.2 12.1 296 10.6
2002-05-02 06:57:36 51°14.838 2°53.757 297.7 12.1 295.3 10.6
2002-05-02 06:57:41 51°14.846 2°53.732 297.7 12.2 295 10.6
2002-05-02 06:57:46 51°14.853 2°53.707 298 12.3 294.9 10.6
2002-05-02 06:57:51 51°14.861 2°53.683 298.3 12.3 295.3 10.5
2002-05-02 06:57:56 51°14.868 2°53.658 298.5 12.3 295.4 10.6
2002-05-02 06:58:00 51°14.874 2°53.638 298.7 12.4 295.3 10.6
2002-05-02 06:58:06 51°14.883 2°53.608 298.7 12.5 295.2 10.6
2002-05-02 06:58:11 51°14.89 2°53.583 299.2 12.5 295.3 10.6
2002-05-02 06:58:16 51°14.898 2°53.558 299.7 12.5 295.6 10.6
2002-05-02 06:58:21 51°14.905 2°53.534 300.8 12.5 296.4 10.7
2002-05-02 06:58:26 51°14.913 2°53.509 301 12.5 296.8 10.7
2002-05-02 06:58:30 51°14.92 2°53.489 301.2 12.7 297.2 10.7
2002-05-02 06:58:36 51°14.93 2°53.459 301.3 12.7 297.4 10.7
2002-05-02 06:58:41 51°14.938 2°53.434 301.7 12.7 297.5 10.8
2002-05-02 06:58:45 51°14.945 2°53.414 301.5 12.8 297.6 10.8
2002-05-02 06:58:50 51°14.953 2°53.388 301.7 12.9 297.6 10.9
2002-05-02 06:58:55 51°14.961 2°53.363 301.5 12.9 297.4 10.9
2002-05-02 06:59:00 51°14.97 2°53.338 301.5 12.9 297.3 10.9
2002-05-02 06:59:06 51°14.98 2°53.307 301.5 12.9 297.4 10.8
2002-05-02 06:59:11 51°14.988 2°53.282 301.8 13 297.7 10.8
2002-05-02 06:59:15 51°14.995 2°53.262 301.7 12.9 297.7 10.8
2002-05-02 06:59:20 51°15.003 2°53.236 301.7 12.9 297.6 10.7
2002-05-02 06:59:26 51°15.013 2°53.205 301.3 13 297.4 10.8
2002-05-02 06:59:31 51°15.021 2°53.18 301.3 12.9 297.2 10.8
2002-05-02 06:59:36 51°15.029 2°53.154 301.3 12.9 296.9 10.8
2002-05-02 06:59:40 51°15.036 2°53.134 301.5 13 297.1 10.9
2002-05-02 06:59:46 51°15.046 2°53.103 301.2 13 297 10.9
2002-05-02 06:59:50 51°15.052 2°53.083 301.8 12.9 297.3 10.9
2002-05-02 06:59:55 51°15.061 2°53.058 301.7 13 297.5 10.9
2002-05-02 07:00:00 51°15.069 2°53.032 301.5 13 297.3 11
2002-05-02 07:00:06 51°15.079 2°53.002 301.5 13 297.4 11
2002-05-02 07:00:11 51°15.087 2°52.976 301.2 13 297.1 11
2002-05-02 07:00:16 51°15.095 2°52.95 301 13 297 11
2002-05-02 07:00:20 51°15.102 2°52.93 301.3 13 296.9 11.1
2002-05-02 07:00:26 51°15.111 2°52.899 301.3 12.9 297 11.2
2002-05-02 07:00:30 51°15.118 2°52.879 301.2 13 296.9 11.2
2002-05-02 07:00:36 51°15.128 2°52.848 301 13 296.7 11.2
2002-05-02 07:00:41 51°15.136 2°52.822 301.5 12.9 296.8 11.3
2002-05-02 07:00:46 51°15.144 2°52.797 301.3 13 296.6 11.4
2002-05-02 07:00:50 51°15.151 2°52.776 301.5 13 296.9 11.4
2002-05-02 07:00:56 51°15.16 2°52.745 301.3 13 296.8 11.4
2002-05-02 07:01:00 51°15.167 2°52.725 301.7 13 297 11.5
2002-05-02 07:01:06 51°15.177 2°52.694 301.5 13 296.8 11.6
2002-05-02 07:01:11 51°15.185 2°52.668 301.7 13 297.1 11.7
2002-05-02 07:01:16 51°15.193 2°52.642 301.2 13 296.6 11.8
2002-05-02 07:01:21 51°15.202 2°52.617 301.5 12.9 296.9 11.9
2002-05-02 07:01:26 51°15.21 2°52.592 301.5 12.9 296.7 11.9
2002-05-02 07:01:30 51°15.216 2°52.572 301.7 12.8 297.1 11.9
2002-05-02 07:01:35 51°15.224 2°52.546 301.7 12.8 296.8 12
2002-05-02 07:01:40 51°15.232 2°52.521 301.8 12.8 297.3 12
2002-05-02 07:01:46 51°15.242 2°52.491 301.5 12.7 297.3 12
2002-05-02 07:01:51 51°15.25 2°52.466 301.2 12.8 297.1 12.1
2002-05-02 07:01:56 51°15.258 2°52.441 301.3 12.9 297.3 12.1
2002-05-02 07:02:00 51°15.265 2°52.42 301.2 13 297.1 12.2
2002-05-02 07:02:06 51°15.275 2°52.389 301.3 13 297.2 12.2
2002-05-02 07:02:11 51°15.284 2°52.363 301.2 13.2 297.2 12.2
2002-05-02 07:02:16 51°15.292 2°52.337 301.3 13.3 297.4 12.3
2002-05-02 07:02:20 51°15.299 2°52.316 301.5 13.3 297.3 12.3
2002-05-02 07:02:26 51°15.309 2°52.284 301.5 13.4 297.5 12.3
2002-05-02 07:02:31 51°15.318 2°52.258 301.2 13.4 297.5 12.4
2002-05-02 07:02:36 51°15.327 2°52.232 301.5 13.3 297.5 12.4
2002-05-02 07:02:40 51°15.333 2°52.212 301.3 13.3 297.5 12.4
2002-05-02 07:02:46 51°15.344 2°52.181 301.5 13.2 297.6 12.5
2002-05-02 07:02:50 51°15.35 2°52.161 301.2 13.1 297.6 12.5
2002-05-02 07:02:56 51°15.36 2°52.131 301.5 12.9 297.8 12.6
2002-05-02 07:03:01 51°15.369 2°52.106 301.5 12.8 297.9 12.7
2002-05-02 07:03:06 51°15.377 2°52.081 301.3 12.7 298 12.7
2002-05-02 07:03:10 51°15.384 2°52.061 301.5 12.6 298 12.8
2002-05-02 07:03:15 51°15.392 2°52.037 301.5 12.6 298.1 12.7
2002-05-02 07:03:20 51°15.4 2°52.013 301.5 12.5 297.9 12.8
2002-05-02 07:03:26 51°15.41 2°51.984 301.3 12.5 298.1 12.9
2002-05-02 07:03:31 51°15.418 2°51.959 301.3 12.5 297.9 12.9
2002-05-02 07:03:36 51°15.426 2°51.935 301.2 12.4 297.9 12.8
2002-05-02 07:03:40 51°15.432 2°51.916 301.7 12.4 298 12.8
2002-05-02 07:03:45 51°15.44 2°51.892 301.7 12.4 298.1 13
2002-05-02 07:03:51 51°15.45 2°51.863 301.8 12.4 298.2 13
2002-05-02 07:03:55 51°15.456 2°51.843 301.3 12.4 297.8 13.1
2002-05-02 07:04:01 51°15.466 2°51.815 301.3 12.3 297.6 13.1
2002-05-02 07:04:05 51°15.472 2°51.795 301.7 12.3 297.5 13.1
2002-05-02 07:04:10 51°15.48 2°51.771 301.7 12.3 297.5 13.1
2002-05-02 07:04:15 51°15.488 2°51.747 301.8 12.3 297.8 13.1
2002-05-02 07:04:20 51°15.496 2°51.723 301.5 12.3 297.5 13.2
2002-05-02 07:04:26 51°15.506 2°51.694 301.7 12.3 297.7 13.2
2002-05-02 07:04:31 51°15.514 2°51.67 301.7 12.3 297.7 13.2
2002-05-02 07:04:36 51°15.522 2°51.646 301.7 12.3 297.8 13.2
2002-05-02 07:04:40 51°15.528 2°51.627 301.8 12.3 297.6 13.3
2002-05-02 07:04:45 51°15.536 2°51.603 301.8 12.3 297.8 13.4
2002-05-02 07:04:51 51°15.546 2°51.574 301.7 12.3 297.7 13.4
2002-05-02 07:04:56 51°15.554 2°51.55 301.5 12.3 297.8 13.4
2002-05-02 07:05:00 51°15.56 2°51.53 301.8 12.3 297.8 13.4
2002-05-02 07:05:06 51°15.57 2°51.502 301.8 12.3 297.9 13.4
2002-05-02 07:05:10 51°15.576 2°51.482 301.7 12.3 297.6 13.5
2002-05-02 07:05:15 51°15.584 2°51.458 301.7 12.3 297.6 13.5
2002-05-02 07:05:20 51°15.592 2°51.434 301.5 12.3 297.7 13.5
2002-05-02 07:05:26 51°15.602 2°51.405 301.7 12.4 297.9 13.5
2002-05-02 07:05:30 51°15.608 2°51.386 301.7 12.4 297.9 13.5
2002-05-02 07:05:35 51°15.616 2°51.362 302 12.4 298.2 13.5
2002-05-02 07:05:40 51°15.624 2°51.338 301.7 12.4 298 13.6
2002-05-02 07:05:45 51°15.633 2°51.314 301.7 12.3 298 13.6
2002-05-02 07:05:51 51°15.642 2°51.285 300.2 12.3 296.9 13.6
2002-05-02 07:05:56 51°15.649 2°51.26 299 12.3 295.8 13.7
2002-05-02 07:06:00 51°15.654 2°51.24 297.7 12.3 294.3 13.7
2002-05-02 07:06:06 51°15.663 2°51.209 296.8 12.4 293.5 13.7
2002-05-02 07:06:10 51°15.668 2°51.189 296.2 12.6 292.6 13.7
2002-05-02 07:06:16 51°15.676 2°51.157 295.8 12.7 292.3 13.7
2002-05-02 07:06:20 51°15.681 2°51.136 295.2 12.8 291.9 13.7
2002-05-02 07:06:26 51°15.689 2°51.104 294.8 12.8 291.5 13.7
2002-05-02 07:06:31 51°15.695 2°51.078 294.8 12.9 291.6 13.7
2002-05-02 07:06:36 51°15.702 2°51.051 295.2 12.9 291.5 13.8
2002-05-02 07:06:40 51°15.707 2°51.03 295.7 12.9 292 13.7
2002-05-02 07:06:46 51°15.715 2°50.998 295.7 12.9 291.7 13.7
2002-05-02 07:06:50 51°15.721 2°50.977 296 12.9 292.3 13.7
2002-05-02 07:06:56 51°15.729 2°50.946 296.3 12.9 292.3 13.7
2002-05-02 07:07:01 51°15.736 2°50.919 296.8 12.9 293 13.7
2002-05-02 07:07:06 51°15.743 2°50.893 296.7 12.9 292.9 13.7
2002-05-02 07:07:10 51°15.749 2°50.872 296.8 12.9 293.2 13.7
2002-05-02 07:07:15 51°15.756 2°50.846 296.7 12.9 293.1 13.7
2002-05-02 07:07:20 51°15.763 2°50.819 296.7 13 293.2 13.7
2002-05-02 07:07:26 51°15.771 2°50.787 296.3 12.9 292.6 13.7
2002-05-02 07:07:30 51°15.776 2°50.766 293.7 12.9 290.5 13.6
2002-05-02 07:07:36 51°15.781 2°50.733 289.2 12.8 286.9 13.5
2002-05-02 07:07:40 51°15.784 2°50.711 284.2 12.8 282.3 13.6
2002-05-02 07:07:45 51°15.786 2°50.683 280.7 12.8 279 13.6
2002-05-02 07:07:51 51°15.787 2°50.649 277.7 12.8 275.2 13.6
2002-05-02 07:07:55 51°15.788 2°50.626 275.2 12.8 272.7 13.7
2002-05-02 07:08:00 51°15.788 2°50.598 272.8 12.8 270.4 13.6
2002-05-02 07:08:05 51°15.787 2°50.569 271.2 12.9 268.7 13.7
2002-05-02 07:08:10 51°15.787 2°50.541 270.5 12.9 268.3 13.6
2002-05-02 07:08:16 51°15.786 2°50.507 270.5 12.9 267.3 13.6
2002-05-02 07:08:21 51°15.785 2°50.478 270.8 12.9 268.2 13.6
2002-05-02 07:08:26 51°15.785 2°50.45 271.7 12.9 268.3 13.6
2002-05-02 07:08:30 51°15.785 2°50.427 272.7 12.9 269.9 13.6
2002-05-02 07:08:36 51°15.785 2°50.393 273.3 12.9 270 13.5
2002-05-02 07:08:41 51°15.786 2°50.364 274.3 12.9 271.6 13.6
2002-05-02 07:08:46 51°15.786 2°50.335 275.2 13 271.7 13.5
2002-05-02 07:08:51 51°15.788 2°50.307 275.7 13 273 13.4
2002-05-02 07:08:55 51°15.789 2°50.284 276.5 13 273.4 13.3
2002-05-02 07:09:01 51°15.79 2°50.25 277.5 13 274.1 13.4
2002-05-02 07:09:05 51°15.792 2°50.227 277.5 13 274.4 13.3
2002-05-02 07:09:10 51°15.793 2°50.198 278.3 13.1 274.9 13.2
2002-05-02 07:09:16 51°15.795 2°50.162 278.3 13.3 274.9 13.1
2002-05-02 07:09:21 51°15.797 2°50.133 277.8 13.4 275.2 13.1
2002-05-02 07:09:26 51°15.798 2°50.103 277.8 13.5 275 12.9
2002-05-02 07:09:30 51°15.8 2°50.079 277.8 13.6 274.8 12.8
2002-05-02 07:09:36 51°15.802 2°50.043 278.2 13.7 275.1 12.6
2002-05-02 07:09:40 51°15.803 2°50.019 277.8 13.6 274.9 12.6
2002-05-02 07:09:46 51°15.805 2°49.983 277.8 13.6 274.7 12.5
2002-05-02 07:09:51 51°15.806 2°49.952 277.7 13.7 274.5 12.3
2002-05-02 07:09:56 51°15.808 2°49.922 277.8 13.7 274.4 12.2
2002-05-02 07:10:01 51°15.809 2°49.892 277.7 13.7 274.5 12
2002-05-02 07:10:06 51°15.811 2°49.862 277.2 13.7 274.3 11.9
2002-05-02 07:10:11 51°15.812 2°49.832 278 13.7 274.6 11.8
2002-05-02 07:10:16 51°15.814 2°49.802 277.5 13.7 274.4 11.7
2002-05-02 07:10:20 51°15.815 2°49.778 277.8 13.7 274.6 11.6
2002-05-02 07:10:25 51°15.817 2°49.747 277.7 13.7 274.9 11.6
2002-05-02 07:10:31 51°15.819 2°49.711 277.8 13.7 274.8 11.5
2002-05-02 07:10:36 51°15.82 2°49.681 277.8 13.7 274.8 11.4
2002-05-02 07:10:40 51°15.821 2°49.657 278 13.7 274.9 11.3
2002-05-02 07:10:45 51°15.823 2°49.627 277.5 13.6 274.7 11.3
2002-05-02 07:10:50 51°15.825 2°49.597 278 13.6 274.9 11.2
2002-05-02 07:10:55 51°15.826 2°49.567 277.8 13.6 274.4 11.2
2002-05-02 07:11:01 51°15.828 2°49.531 278.2 13.6 275 11.2
2002-05-02 07:11:05 51°15.829 2°49.506 277.2 13.7 274.2 11.1
2002-05-02 07:11:11 51°15.831 2°49.47 277.7 13.7 274.7 11.1
2002-05-02 07:11:16 51°15.832 2°49.44 277.8 13.7 274.3 11.1
2002-05-02 07:11:20 51°15.834 2°49.416 277.8 13.7 274.8 11.1
2002-05-02 07:11:26 51°15.835 2°49.38 277.5 13.6 274.4 11.1
2002-05-02 07:11:31 51°15.837 2°49.35 278 13.7 274.9 11.2
2002-05-02 07:11:35 51°15.838 2°49.326 277.7 13.7 274.5 11.1
2002-05-02 07:11:41 51°15.841 2°49.289 278.3 13.7 275.4 11.2
2002-05-02 07:11:46 51°15.842 2°49.259 278.7 13.7 275.1 11.2
2002-05-02 07:11:51 51°15.845 2°49.229 279.2 13.7 276.3 11.2
2002-05-02 07:11:56 51°15.847 2°49.199 279.5 13.7 275.9 11.3
2002-05-02 07:12:00 51°15.849 2°49.175 279.8 13.7 276.5 11.3
2002-05-02 07:12:05 51°15.851 2°49.145 279.8 13.7 276.6 11.4
2002-05-02 07:12:11 51°15.853 2°49.109 280.2 13.7 276.7 11.5
2002-05-02 07:12:15 51°15.855 2°49.085 280.2 13.8 277 11.6
2002-05-02 07:12:20 51°15.858 2°49.054 280.2 13.8 277.1 11.7
2002-05-02 07:12:26 51°15.861 2°49.018 280.2 13.8 277.2 11.8
2002-05-02 07:12:30 51°15.862 2°48.993 279.8 13.8 276.9 11.9
2002-05-02 07:12:35 51°15.865 2°48.963 279.8 13.8 276.8 12
2002-05-02 07:12:40 51°15.867 2°48.933 279.8 13.8 276.9 12
2002-05-02 07:12:46 51°15.87 2°48.897 280 13.8 276.9 12.2
2002-05-02 07:12:51 51°15.872 2°48.866 280.2 13.8 277 12.3
2002-05-02 07:12:56 51°15.874 2°48.836 280 13.8 276.7 12.3
2002-05-02 07:13:00 51°15.876 2°48.812 279.8 13.8 276.8 12.3
2002-05-02 07:13:06 51°15.879 2°48.775 279.7 13.8 276.5 12.4
2002-05-02 07:13:10 51°15.881 2°48.751 279.7 13.8 276.6 12.6
2002-05-02 07:13:16 51°15.883 2°48.714 279.8 13.8 276.5 12.7
2002-05-02 07:13:21 51°15.885 2°48.684 280 13.8 276.7 12.8
2002-05-02 07:13:26 51°15.888 2°48.654 279.7 13.8 276.7 12.8
2002-05-02 07:13:31 51°15.89 2°48.623 279.8 13.8 276.7 13
2002-05-02 07:13:35 51°15.892 2°48.599 279.5 13.8 276.5 13.1
2002-05-02 07:13:40 51°15.894 2°48.569 279.8 13.8 276.8 13.3
2002-05-02 07:13:46 51°15.896 2°48.532 279.5 13.8 276.4 13.4
2002-05-02 07:13:50 51°15.899 2°48.508 279.7 13.8 276.8 13.5
2002-05-02 07:13:56 51°15.901 2°48.471 280 13.8 277 13.8
2002-05-02 07:14:01 51°15.904 2°48.441 281.5 13.8 278.1 13.9
2002-05-02 07:14:06 51°15.908 2°48.411 283.3 13.8 279.6 14.1
2002-05-02 07:14:10 51°15.911 2°48.387 285 13.9 281.2 14.3
2002-05-02 07:14:16 51°15.917 2°48.352 287.7 13.8 283.8 14.5
2002-05-02 07:14:20 51°15.921 2°48.328 289 13.8 284.9 14.6
2002-05-02 07:14:26 51°15.929 2°48.294 291.2 13.8 287.1 14.7
2002-05-02 07:14:30 51°15.933 2°48.27 292 13.8 287.8 14.9
2002-05-02 07:14:36 51°15.942 2°48.236 293.8 13.8 289.9 15.1
2002-05-02 07:14:41 51°15.948 2°48.207 293.8 13.8 289.9 15.3
2002-05-02 07:14:46 51°15.955 2°48.179 295.2 13.8 290.9 15.3
2002-05-02 07:14:51 51°15.962 2°48.15 294.7 13.8 290.7 15.4
2002-05-02 07:14:56 51°15.969 2°48.122 295.3 13.8 291.4 15.6
2002-05-02 07:15:01 51°15.975 2°48.093 294.5 13.8 290.6 15.6
2002-05-02 07:15:06 51°15.983 2°48.065 294.5 13.8 291.1 15.7
2002-05-02 07:15:10 51°15.987 2°48.041 293.5 13.8 289.7 15.8
2002-05-02 07:15:16 51°15.996 2°48.007 293.7 13.8 289.9 15.8
2002-05-02 07:15:21 51°16.001 2°47.978 292.3 13.8 288.6 15.9
2002-05-02 07:15:26 51°16.008 2°47.949 292.7 13.8 289 15.6
2002-05-02 07:15:31 51°16.013 2°47.92 291.8 13.8 287.9 16
2002-05-02 07:15:36 51°16.02 2°47.891 292.8 13.8 288.9 16
2002-05-02 07:15:41 51°16.026 2°47.862 292.3 13.8 288.4 16.1
2002-05-02 07:15:45 51°16.031 2°47.839 292.8 13.8 289.2 16
2002-05-02 07:15:50 51°16.037 2°47.81 293.5 13.8 289.3 16.2
2002-05-02 07:15:56 51°16.046 2°47.776 294.5 13.8 290.4 16.1
2002-05-02 07:16:00 51°16.051 2°47.753 294.7 13.8 290.2 16.2
2002-05-02 07:16:06 51°16.06 2°47.719 295.5 13.8 291.4 16.3
2002-05-02 07:16:11 51°16.066 2°47.691 294.8 13.8 290.9 15.9
2002-05-02 07:16:15 51°16.072 2°47.668 295.5 13.8 291.6 16.3
2002-05-02 07:16:20 51°16.079 2°47.639 295.3 13.8 291.3 16.2
2002-05-02 07:16:26 51°16.088 2°47.605 295.7 13.8 291.7 15.9
2002-05-02 07:16:30 51°16.093 2°47.583 295.5 13.8 291.5 15.9
2002-05-02 07:16:36 51°16.102 2°47.548 295 13.8 291.3 16
2002-05-02 07:16:40 51°16.107 2°47.526 294.8 13.8 291.2 16.1
2002-05-02 07:16:46 51°16.116 2°47.492 295.2 13.8 291.3 16.1
2002-05-02 07:16:51 51°16.122 2°47.463 295 13.8 291.3 16
2002-05-02 07:16:56 51°16.129 2°47.435 295 13.8 291.4 15.8
2002-05-02 07:17:01 51°16.136 2°47.407 294.5 13.8 291 15.1
2002-05-02 07:17:05 51°16.141 2°47.384 293.5 13.8 290.4 15.6
2002-05-02 07:17:10 51°16.148 2°47.355 293 13.8 289.7 15.4
2002-05-02 07:17:16 51°16.155 2°47.321 292.2 13.8 289.3 15.3
2002-05-02 07:17:20 51°16.16 2°47.298 292.5 13.8 289.1 15.1
2002-05-02 07:17:26 51°16.167 2°47.263 292 13.7 289 14.8
2002-05-02 07:17:31 51°16.174 2°47.235 292.3 13.7 289.1 14.7
2002-05-02 07:17:36 51°16.18 2°47.206 292 13.7 288.9 14.6
2002-05-02 07:17:40 51°16.185 2°47.183 292.2 13.7 289 14.5
2002-05-02 07:17:46 51°16.192 2°47.148 292.2 13.7 289.1 13.7
2002-05-02 07:17:51 51°16.199 2°47.12 292.3 13.7 289.2 13.1
2002-05-02 07:17:55 51°16.204 2°47.097 292.3 13.7 289.3 13.5
2002-05-02 07:18:01 51°16.212 2°47.063 292.7 13.7 289.6 13.7
2002-05-02 07:18:06 51°16.218 2°47.034 292.2 13.7 289.6 13.7
2002-05-02 07:18:11 51°16.224 2°47.006 292.7 13.7 289.7 13.5
2002-05-02 07:18:15 51°16.23 2°46.983 292.7 13.7 290 13.3
2002-05-02 07:18:21 51°16.238 2°46.949 292.8 13.7 290 13.3
2002-05-02 07:18:26 51°16.244 2°46.92 292.8 13.7 290 11.8
2002-05-02 07:18:30 51°16.249 2°46.897 293.2 13.7 289.9 11.6
2002-05-02 07:18:36 51°16.257 2°46.863 292.8 13.7 289.7 11.5
2002-05-02 07:18:40 51°16.262 2°46.84 291.8 13.6 289.5 11.6
2002-05-02 07:18:46 51°16.269 2°46.806 291.5 13.6 288.5 11.4
2002-05-02 07:18:51 51°16.275 2°46.777 290.8 13.7 288.2 11.3
2002-05-02 07:18:55 51°16.279 2°46.754 290 13.7 287.6 11.3
2002-05-02 07:19:01 51°16.286 2°46.719 289.8 13.7 287.2 11.1
2002-05-02 07:19:05 51°16.291 2°46.696 290.3 13.7 287.7 10.8
2002-05-02 07:19:11 51°16.298 2°46.661 290.2 13.7 287.5 10.6
2002-05-02 07:19:16 51°16.304 2°46.633 290.7 13.7 288 10.4
2002-05-02 07:19:21 51°16.31 2°46.604 290.8 13.7 288.2 10.2
2002-05-02 07:19:26 51°16.316 2°46.575 290.8 13.6 288.4 10
2002-05-02 07:19:31 51°16.321 2°46.547 290.5 13.6 288.3 9.9
2002-05-02 07:19:35 51°16.326 2°46.524 290.5 13.6 288.5 9.7
2002-05-02 07:19:40 51°16.332 2°46.496 290.5 13.6 288.4 9.5
2002-05-02 07:19:46 51°16.34 2°46.462 291 13.6 288.6 9.3
2002-05-02 07:19:51 51°16.345 2°46.433 290.3 13.6 288.3 9.2
2002-05-02 07:19:56 51°16.351 2°46.405 289.8 13.5 288 9
2002-05-02 07:20:00 51°16.355 2°46.382 288.3 13.5 286.5 8.8
2002-05-02 07:20:06 51°16.361 2°46.347 288 13.4 286.2 8.9
2002-05-02 07:20:10 51°16.365 2°46.325 287 13.4 285.1 9.2
2002-05-02 07:20:16 51°16.371 2°46.29 287 13.4 285.4 9.5
2002-05-02 07:20:20 51°16.375 2°46.267 286.8 13.5 284.8 9.5
2002-05-02 07:20:26 51°16.381 2°46.232 287.2 13.6 285.1 9.5
2002-05-02 07:20:30 51°16.385 2°46.208 286.5 13.7 284.8 9.7
2002-05-02 07:20:35 51°16.39 2°46.179 287.2 13.7 284.9 9.7
2002-05-02 07:20:40 51°16.395 2°46.15 286.7 13.7 284.8 9.8
2002-05-02 07:20:46 51°16.401 2°46.115 287.3 13.7 285.6 9.8
2002-05-02 07:20:51 51°16.406 2°46.085 287.5 13.7 285.3 10.1
2002-05-02 07:20:56 51°16.411 2°46.056 287.7 13.7 285.6 10.1
2002-05-02 07:21:01 51°16.416 2°46.026 287.7 13.8 285.2 10.3
2002-05-02 07:21:06 51°16.421 2°45.997 288 13.8 285.8 10.3
2002-05-02 07:21:11 51°16.427 2°45.968 288.2 13.8 285.6 10.4
2002-05-02 07:21:16 51°16.431 2°45.938 287.3 13.8 285.6 10.8
2002-05-02 07:21:21 51°16.437 2°45.909 288 13.8 286 -999
2002-05-02 07:21:27 51°16.443 2°45.873 287.8 13.8 285.6 -999
2002-05-02 07:21:31 51°16.447 2°45.85 287.7 13.8 286.1 10.8
2002-05-02 07:21:36 51°16.452 2°45.821 287.8 13.8 285.7 11
2002-05-02 07:21:41 51°16.458 2°45.791 288 13.8 285.8 11
2002-05-02 07:21:46 51°16.463 2°45.762 288.8 13.8 286.1 11
2002-05-02 07:21:51 51°16.469 2°45.733 289.2 13.8 286.8 10.9
2002-05-02 07:21:55 51°16.474 2°45.71 290.3 13.8 287.5 10.9
2002-05-02 07:22:01 51°16.481 2°45.675 290.2 13.7 287.7 11
2002-05-02 07:22:06 51°16.488 2°45.647 291.7 13.7 288.8 10.9
2002-05-02 07:22:11 51°16.493 2°45.618 291.5 13.8 289.1 10.9
2002-05-02 07:22:16 51°16.501 2°45.59 293.7 13.8 291.1 10.9
2002-05-02 07:22:20 51°16.506 2°45.567 294.5 13.8 291.6 11.1
2002-05-02 07:22:26 51°16.516 2°45.534 296.3 13.8 293.9 11.4
2002-05-02 07:22:30 51°16.522 2°45.511 297.2 13.8 294 11.4
2002-05-02 07:22:36 51°16.533 2°45.479 299.8 13.8 296.5 11.5
2002-05-02 07:22:41 51°16.542 2°45.452 301.3 13.8 298.1 11.8
2002-05-02 07:22:46 51°16.553 2°45.426 304 13.8 300.7 12
2002-05-02 07:22:50 51°16.561 2°45.405 305.7 13.8 302.5 11.8
2002-05-02 07:22:56 51°16.575 2°45.376 309.2 13.8 305.2 12.1
2002-05-02 07:23:01 51°16.586 2°45.352 310.2 13.8 306.5 11.4
2002-05-02 07:23:05 51°16.597 2°45.334 313.2 13.8 309.1 11.3
2002-05-02 07:23:11 51°16.611 2°45.305 313.5 13.8 309.8 11.2
2002-05-02 07:23:16 51°16.625 2°45.284 317.2 13.8 312.9 11.1
2002-05-02 07:23:20 51°16.635 2°45.266 318.3 13.8 314 11.2
2002-05-02 07:23:26 51°16.653 2°45.243 322 13.7 317.7 11.2
2002-05-02 07:23:31 51°16.666 2°45.222 321.5 13.8 317.7 11.4
2002-05-02 07:23:35 51°16.679 2°45.207 325 13.8 319.8 11.4
2002-05-02 07:23:40 51°16.693 2°45.186 323.8 13.9 320 11.4
2002-05-02 07:23:46 51°16.712 2°45.165 326.2 13.8 321.4 11.6
2002-05-02 07:23:51 51°16.726 2°45.144 325 13.9 321.1 11.9
2002-05-02 07:23:56 51°16.742 2°45.128 327.8 13.8 322.7 11.9
2002-05-02 07:24:00 51°16.754 2°45.112 326 13.8 323.3 11.9
2002-05-02 07:24:05 51°16.77 2°45.094 328.3 13.9 323.5 12.1
2002-05-02 07:24:11 51°16.788 2°45.072 326.8 13.9 323.1 12
2002-05-02 07:24:16 51°16.804 2°45.055 328.5 13.9 323.8 12
2002-05-02 07:24:20 51°16.816 2°45.039 326.2 13.8 322.8 12
2002-05-02 07:24:26 51°16.834 2°45.018 327 13.8 322.4 11.9
2002-05-02 07:24:31 51°16.849 2°44.998 326.2 13.9 322.1 12.1
2002-05-02 07:24:36 51°16.865 2°44.98 327 13.8 322 12.1
2002-05-02 07:24:41 51°16.879 2°44.96 326 13.8 321.6 12.2
2002-05-02 07:24:46 51°16.895 2°44.942 326.3 13.8 321.4 12.3
2002-05-02 07:24:51 51°16.91 2°44.922 325.7 13.9 321.3 12.5
2002-05-02 07:24:56 51°16.925 2°44.904 326.2 13.8 321 12.7
2002-05-02 07:25:01 51°16.94 2°44.883 325 13.9 321 12.7
2002-05-02 07:25:06 51°16.955 2°44.865 325 13.9 320.1 12.9
2002-05-02 07:25:10 51°16.967 2°44.849 324.7 13.9 321.1 13.2
2002-05-02 07:25:15 51°16.981 2°44.829 324.7 13.9 320.1 13.5
2002-05-02 07:25:21 51°16.999 2°44.805 324.7 13.9 320.3 14
2002-05-02 07:25:26 51°17.014 2°44.786 324.2 13.9 319.6 14.6
2002-05-02 07:25:31 51°17.029 2°44.766 324.7 13.9 320.4 14.9
2002-05-02 07:25:36 51°17.043 2°44.746 323.7 13.9 319.1 15.2
2002-05-02 07:25:41 51°17.058 2°44.727 324.7 13.9 320.3 15.5
2002-05-02 07:25:46 51°17.073 2°44.706 323.7 13.9 319.7 15.8
2002-05-02 07:25:51 51°17.088 2°44.687 325.2 13.9 320.6 15.8
2002-05-02 07:25:56 51°17.102 2°44.667 323.7 13.9 319.1 16.1
2002-05-02 07:26:00 51°17.115 2°44.652 325.8 13.9 321.4 16.3
2002-05-02 07:26:06 51°17.132 2°44.628 324.2 13.9 319.5 16.2
2002-05-02 07:26:11 51°17.147 2°44.609 326.2 13.8 321.4 16.2
2002-05-02 07:26:16 51°17.161 2°44.588 323.7 13.8 319.4 16.6
2002-05-02 07:26:20 51°17.174 2°44.574 326 13.8 321.3 16.5
2002-05-02 07:26:26 51°17.191 2°44.55 324 13.8 319.9 16
2002-05-02 07:26:29 51°17.201 2°44.54 327.3 13.8 322.2 16.6
2002-05-02 07:26:36 51°17.222 2°44.513 327.7 13.8 322.7 16.3
2002-05-02 07:26:41 51°17.238 2°44.497 330.8 13.8 325.7 16.3
2002-05-02 07:26:46 51°17.254 2°44.48 330.8 13.8 326.3 16.4
2002-05-02 07:26:51 51°17.271 2°44.465 333.7 13.8 328.5 16.4
2002-05-02 07:26:56 51°17.287 2°44.448 332.7 13.8 328.6 16.3
2002-05-02 07:27:01 51°17.304 2°44.434 334.5 13.8 329.8 16.2
2002-05-02 07:27:06 51°17.32 2°44.419 336.3 13.8 330.9 16.2
2002-05-02 07:27:11 51°17.338 2°44.406 338.5 13.8 333.3 16.3
2002-05-02 07:27:15 51°17.351 2°44.396 340.2 13.6 334.5 16.4
2002-05-02 07:27:20 51°17.367 2°44.386 342.7 12.9 337.1 16.5
2002-05-02 07:27:26 51°17.386 2°44.375 344.5 12.5 338.4 16.7
2002-05-02 07:27:30 51°17.399 2°44.369 346.8 11.9 341.3 16.9
2002-05-02 07:27:36 51°17.417 2°44.361 349.2 11.5 343.5 17.1
2002-05-02 07:27:40 51°17.429 2°44.357 354.3 11.2 347.6 17.1
2002-05-02 07:27:46 51°17.447 2°44.354 358.7 10.9 350.9 17.3
2002-05-02 07:27:51 51°17.461 2°44.353 3.7 10.4 356.6 17.3
2002-05-02 07:27:56 51°17.475 2°44.354 7.8 9.9 0.9 17.3
2002-05-02 07:28:00 51°17.484 2°44.356 11.7 9.4 4.5 17.4
2002-05-02 07:28:05 51°17.496 2°44.359 15.2 9 7.3 17.4
2002-05-02 07:28:10 51°17.508 2°44.363 18.8 8.4 11 17.6
2002-05-02 07:28:16 51°17.52 2°44.368 21.8 8.1 13.5 17.4
2002-05-02 07:28:20 51°17.528 2°44.372 23.8 7.6 16.2 17.3
2002-05-02 07:28:26 51°17.539 2°44.378 24.2 7.2 17 17.7
2002-05-02 07:28:31 51°17.547 2°44.382 24.8 6.5 17.9 17.5
2002-05-02 07:28:36 51°17.555 2°44.386 27 6.1 18.7 17.6
2002-05-02 07:28:40 51°17.56 2°44.39 30.3 5.5 21.7 17.4
2002-05-02 07:28:46 51°17.568 2°44.396 34.3 5.1 24 17.5
2002-05-02 07:28:51 51°17.573 2°44.401 38.5 4.6 28.8 17.5
2002-05-02 07:28:55 51°17.576 2°44.405 43.2 4.3 31.7 17.6
2002-05-02 07:29:01 51°17.581 2°44.411 47.5 3.8 36.1 17.5
2002-05-02 07:29:06 51°17.584 2°44.416 51.5 3.5 38.9 17.5
2002-05-02 07:29:10 51°17.587 2°44.419 55.8 3.1 43.2 17.4
2002-05-02 07:29:15 51°17.589 2°44.423 60.5 2.7 45.3 17.4
2002-05-02 07:29:20 51°17.591 2°44.426 65.3 2.3 47.5 17.5
2002-05-02 07:29:26 51°17.592 2°44.43 70.2 1.9 50.8 17.5
2002-05-02 07:29:30 51°17.593 2°44.432 74.7 1.5 52.4 17.4
2002-05-02 07:29:36 51°17.594 2°44.434 78.7 1.3 55 17.5
2002-05-02 07:29:41 51°17.595 2°44.437 82.5 1.1 57.8 17.4
2002-05-02 07:29:46 51°17.596 2°44.439 85.7 1.1 61.2 17.4
2002-05-02 07:29:51 51°17.597 2°44.441 88 1 64.4 17.4
2002-05-02 07:29:56 51°17.597 2°44.443 90.7 1 64.6 17.4
2002-05-02 07:30:00 51°17.597 2°44.445 92.2 1 69 17.4
2002-05-02 07:30:06 51°17.598 2°44.447 93.7 1 68.6 17.3
2002-05-02 07:30:11 51°17.598 2°44.449 94.7 0.9 72.3 17.2
2002-05-02 07:30:16 51°17.599 2°44.451 95.2 0.9 70.1 17.3
2002-05-02 07:30:21 51°17.599 2°44.453 95.7 0.9 71.7 17.3
2002-05-02 07:30:25 51°17.6 2°44.454 95.8 0.9 72.6 17.4
2002-05-02 07:30:30 51°17.6 2°44.456 95.8 0.9 74.3 17.3
2002-05-02 07:30:36 51°17.601 2°44.458 95.7 0.8 73.2 17.4
2002-05-02 07:30:40 51°17.601 2°44.46 95.3 0.8 73 17.4
2002-05-02 07:30:45 51°17.601 2°44.461 95 0.8 73.4 17.4
2002-05-02 07:30:51 51°17.602 2°44.463 94.3 0.8 73.6 17.3
2002-05-02 07:30:55 51°17.602 2°44.465 93.8 0.8 72.4 17.2
2002-05-02 07:31:00 51°17.602 2°44.466 93.2 0.8 72.4 17.4
2002-05-02 07:31:06 51°17.603 2°44.468 92.5 0.8 72.8 17.3
2002-05-02 07:31:11 51°17.603 2°44.47 91.7 0.7 70.1 17.3
2002-05-02 07:31:15 51°17.603 2°44.471 90.7 0.7 70.5 17.4
2002-05-02 07:31:20 51°17.604 2°44.472 90 0.7 69.7 17.4
2002-05-02 07:31:26 51°17.604 2°44.474 89.2 0.7 71.4 17.4
2002-05-02 07:31:31 51°17.604 2°44.476 88.2 0.7 69.1 17.5
2002-05-02 07:31:35 51°17.605 2°44.477 87.2 0.7 70.5 17.5
2002-05-02 07:31:40 51°17.605 2°44.478 86.2 0.7 68 17.4
2002-05-02 07:31:46 51°17.606 2°44.48 85.2 0.7 66.8 17.3
2002-05-02 07:31:51 51°17.606 2°44.481 84.2 0.7 65.3 17.4
2002-05-02 07:31:56 51°17.606 2°44.482 83 0.7 65 17.4
2002-05-02 07:32:00 51°17.607 2°44.483 81.8 0.6 64.6 17.5
2002-05-02 07:32:05 51°17.607 2°44.484 80.8 0.6 61.9 17.4
2002-05-02 07:32:10 51°17.607 2°44.485 79.8 0.6 63.1 17.4
2002-05-02 07:32:16 51°17.608 2°44.487 78.8 0.6 61.2 17.4
2002-05-02 07:32:20 51°17.608 2°44.488 77.8 0.6 60.8 17.3
2002-05-02 07:32:25 51°17.608 2°44.489 76.8 0.6 60.5 17.3
2002-05-02 07:32:31 51°17.609 2°44.49 76 0.6 55.9 17.3
2002-05-02 07:32:36 51°17.609 2°44.491 75.3 0.6 61.3 17.4
2002-05-02 07:32:41 51°17.61 2°44.492 74.2 0.6 54.6 17.4
2002-05-02 07:32:46 51°17.61 2°44.493 73.5 0.6 59.8 17.4
2002-05-02 07:32:51 51°17.611 2°44.494 72.7 0.6 52.1 17.5
2002-05-02 07:32:56 51°17.611 2°44.495 72 0.5 57.3 17.5
2002-05-02 07:33:01 51°17.612 2°44.496 70.8 0.5 52.2 17.5
2002-05-02 07:33:06 51°17.612 2°44.497 70.2 0.5 56.2 17.5
2002-05-02 07:33:11 51°17.613 2°44.498 69.3 0.5 50.6 17.4
2002-05-02 07:33:16 51°17.613 2°44.499 68.7 0.5 56.6 17.3
2002-05-02 07:33:20 51°17.613 2°44.499 67.8 0.5 50.1 17.3
2002-05-02 07:33:25 51°17.614 2°44.5 67.2 0.5 51.6 17.4
2002-05-02 07:33:31 51°17.614 2°44.501 66.3 0.5 50.3 17.4
2002-05-02 07:33:36 51°17.615 2°44.501 65.7 0.5 43.7 17.5
2002-05-02 07:33:40 51°17.615 2°44.502 65 0.5 49 17.6
2002-05-02 07:33:45 51°17.616 2°44.503 64.2 0.5 43.4 17.6
2002-05-02 07:33:51 51°17.616 2°44.504 63.5 0.5 49.1 17.5
2002-05-02 07:33:56 51°17.617 2°44.504 62.8 0.5 38 17.4
2002-05-02 07:34:00 51°17.617 2°44.505 62.3 0.4 46.9 17.2
2002-05-02 07:34:06 51°17.618 2°44.506 61.5 0.5 38.8 17.1
2002-05-02 07:34:11 51°17.618 2°44.506 61 0.4 45.4 17.2
2002-05-02 07:34:16 51°17.619 2°44.507 60.3 0.4 38.9 17.1
2002-05-02 07:34:21 51°17.619 2°44.508 59.8 0.4 43.7 17
2002-05-02 07:34:26 51°17.619 2°44.508 59 0.4 38.8 17
2002-05-02 07:34:31 51°17.62 2°44.509 58.5 0.4 38.8 17.2
2002-05-02 07:34:36 51°17.62 2°44.509 57.7 0.4 37.6 17.4
2002-05-02 07:34:40 51°17.621 2°44.51 57 0.4 36.7 17.4
2002-05-02 07:34:46 51°17.621 2°44.51 56.3 0.4 34.3 17.3
2002-05-02 07:34:51 51°17.622 2°44.511 55.8 0.4 34.8 17.3
2002-05-02 07:34:56 51°17.622 2°44.511 55.2 0.4 31.7 17.3
2002-05-02 07:35:00 51°17.623 2°44.512 54.3 0.6 41.6 17.3
2002-05-02 07:35:05 51°17.624 2°44.514 53.8 0.9 41.9 17.4
2002-05-02 07:35:10 51°17.625 2°44.516 55.2 1.4 48 17.5
2002-05-02 07:35:16 51°17.628 2°44.521 58 2 50 17.5
2002-05-02 07:35:20 51°17.629 2°44.525 61.8 2.6 54.6 17.2
2002-05-02 07:35:26 51°17.632 2°44.533 67.3 3.1 59.3 17.5
2002-05-02 07:35:30 51°17.634 2°44.539 74.2 3.6 66 17.4
2002-05-02 07:35:36 51°17.635 2°44.55 81.5 4 73.4 17.6
2002-05-02 07:35:40 51°17.636 2°44.558 89.5 4.3 82.4 17.6
2002-05-02 07:35:46 51°17.635 2°44.57 98.7 4.4 89.3 17.8
2002-05-02 07:35:51 51°17.633 2°44.58 107.2 4.6 100.4 17.6
2002-05-02 07:35:56 51°17.63 2°44.59 116.3 4.7 108.2 17.7
2002-05-02 07:36:00 51°17.627 2°44.597 125.7 4.8 119.6 17.6
2002-05-02 07:36:06 51°17.622 2°44.607 135 4.9 127.1 17.6
2002-05-02 07:36:11 51°17.616 2°44.613 143 5 138.2 17.4
2002-05-02 07:36:16 51°17.609 2°44.618 151.8 5.1 146.6 17.5
2002-05-02 07:36:20 51°17.604 2°44.621 160.7 5.2 158.1 17.4
2002-05-02 07:36:26 51°17.595 2°44.623 169.7 5.3 165.9 17.4
2002-05-02 07:36:31 51°17.588 2°44.622 178.3 5.3 177.3 17.3
2002-05-02 07:36:36 51°17.58 2°44.62 188 5.4 185 17.4
2002-05-02 07:36:40 51°17.574 2°44.616 197.3 5.5 196.2 17.4
2002-05-02 07:36:45 51°17.567 2°44.611 206.2 5.6 204.9 17.2
2002-05-02 07:36:50 51°17.561 2°44.603 214.7 5.7 213.7 17
2002-05-02 07:36:56 51°17.554 2°44.592 223.7 5.8 220.3 17.4
2002-05-02 07:37:00 51°17.55 2°44.583 231.7 6 230 17.2
2002-05-02 07:37:06 51°17.544 2°44.569 238.7 6.2 236.3 17.2
2002-05-02 07:37:11 51°17.54 2°44.556 243.8 6.5 241.5 17.3
2002-05-02 07:37:16 51°17.536 2°44.542 248.2 6.7 244.6 17.2
2002-05-02 07:37:21 51°17.534 2°44.528 252.3 6.8 249.7 16.9
2002-05-02 07:37:25 51°17.532 2°44.517 256.8 6.6 252.6 17.3
2002-05-02 07:37:31 51°17.531 2°44.501 263 6.2 259.2 17.2
2002-05-02 07:37:36 51°17.53 2°44.487 269.7 6 263.6 17.2
2002-05-02 07:37:41 51°17.531 2°44.475 275.8 5.8 270.7 17.1
2002-05-02 07:37:46 51°17.532 2°44.463 281.5 5.7 274.9 17.2
2002-05-02 07:37:51 51°17.534 2°44.451 284 5.6 279.1 17.3
2002-05-02 07:37:56 51°17.535 2°44.439 284.3 5.6 280 17.4
2002-05-02 07:38:01 51°17.536 2°44.427 284.5 5.5 280.4 17.5
2002-05-02 07:38:06 51°17.537 2°44.416 284.7 5.3 280.8 17.4
2002-05-02 07:38:10 51°17.539 2°44.407 285.2 5.1 281.3 17.4
2002-05-02 07:38:15 51°17.54 2°44.396 286.2 4.9 281.9 17.4
2002-05-02 07:38:20 51°17.542 2°44.387 287.2 4.6 282.6 17.2
2002-05-02 07:38:26 51°17.543 2°44.376 289 4.4 283.2 17.5
2002-05-02 07:38:30 51°17.545 2°44.369 290.2 4.1 284.7 17.4
2002-05-02 07:38:36 51°17.546 2°44.36 290.2 3.8 285.1 17.5
2002-05-02 07:38:40 51°17.547 2°44.355 288.3 3.2 285.2 17.4
2002-05-02 07:38:45 51°17.548 2°44.351 284.3 2.4 284.4 17.5
2002-05-02 07:38:51 51°17.548 2°44.347 281.5 1.8 284.5 17.3
2002-05-02 07:38:56 51°17.549 2°44.345 279.8 1.2 285.5 17.3
2002-05-02 07:39:01 51°17.549 2°44.344 278.7 0.7 295.1 17.2
2002-05-02 07:39:06 51°17.549 2°44.345 278.3 0.3 315.7 17.2
2002-05-02 07:39:10 51°17.55 2°44.344 278.3 0.2 354.5 17.2
2002-05-02 07:39:16 51°17.55 2°44.344 278 0.2 349.5 17.2
2002-05-02 07:39:21 51°17.55 2°44.344 277.7 0.2 331.6 -999
2002-05-02 07:39:27 51°17.55 2°44.343 277 0.2 316 -999
2002-05-02 07:39:31 51°17.551 2°44.343 276.5 0.2 311 -999
2002-05-02 07:39:37 51°17.551 2°44.342 276 0.2 308.5 -999
2002-05-02 07:39:41 51°17.551 2°44.342 275.5 0.3 310.6 -999
2002-05-02 07:39:47 51°17.551 2°44.342 275.2 0.3 307.1 -999
2002-05-02 07:39:51 51°17.552 2°44.341 275 0.3 306.9 -999
2002-05-02 07:39:56 51°17.552 2°44.341 274.7 0.3 307 -999
2002-05-02 07:40:01 51°17.552 2°44.34 274.5 0.3 310.4 -999
2002-05-02 07:40:07 51°17.552 2°44.34 274 0.3 297.1 -999
2002-05-02 07:40:11 51°17.552 2°44.339 273.5 0.3 296.1 -999
2002-05-02 07:40:17 51°17.552 2°44.339 273 0.3 286.4 -999
2002-05-02 07:40:21 51°17.553 2°44.338 272.8 0.3 293.1 17.6
2002-05-02 07:40:26 51°17.552 2°44.338 272.5 0.3 282.2 17.6
2002-05-02 07:40:31 51°17.553 2°44.337 272.2 0.4 293.5 17.6
2002-05-02 07:40:36 51°17.553 2°44.336 271.7 0.3 281.9 17.5
2002-05-02 07:40:40 51°17.553 2°44.335 271.3 0.4 289.6 17.5
2002-05-02 07:40:46 51°17.553 2°44.334 271 0.4 281.5 17.5
2002-05-02 07:40:50 51°17.553 2°44.333 270.8 0.4 282.6 17.5
2002-05-02 07:40:56 51°17.554 2°44.332 270.3 0.4 280.8 17.4
2002-05-02 07:41:00 51°17.554 2°44.332 270 0.4 279.3 16.9
2002-05-02 07:41:06 51°17.554 2°44.33 269.7 0.4 279.1 17
2002-05-02 07:41:11 51°17.554 2°44.329 269.3 0.4 280 16.6
2002-05-02 07:41:16 51°17.554 2°44.328 268.8 0.4 277.5 16.5
2002-05-02 07:41:21 51°17.554 2°44.328 268.7 0.4 279 16.2
2002-05-02 07:41:25 51°17.554 2°44.327 268.3 0.4 275.8 16.1
2002-05-02 07:41:29 51°17.554 2°44.326 268.2 0.4 276.7 16.2
2002-05-02 07:41:36 51°17.554 2°44.324 268.2 0.4 273.2 15.6
2002-05-02 07:41:40 51°17.554 2°44.324 267.7 0.4 276.9 15.9
2002-05-02 07:41:46 51°17.554 2°44.322 267.8 0.4 270.5 15.6
2002-05-02 07:41:50 51°17.554 2°44.322 267.3 0.4 275.3 16.9
2002-05-02 07:41:56 51°17.554 2°44.32 267.5 0.5 269.9 17.6
2002-05-02 07:41:59 51°17.554 2°44.32 267 0.5 273.7 16.8
2002-05-02 07:42:06 51°17.554 2°44.318 267 0.5 269.5 17.4
2002-05-02 07:42:11 51°17.554 2°44.317 266.7 0.5 272.1 17.3
2002-05-02 07:42:16 51°17.554 2°44.316 266.3 0.5 269.5 17.4
2002-05-02 07:42:21 51°17.554 2°44.315 266 0.5 270 17.3
2002-05-02 07:42:26 51°17.554 2°44.314 265.8 0.5 266 17.3
2002-05-02 07:42:31 51°17.554 2°44.313 265.5 0.5 267.7 17.3
2002-05-02 07:42:35 51°17.554 2°44.312 265 0.5 264.5 17.4
2002-05-02 07:42:40 51°17.554 2°44.311 264.5 0.5 265.4 17.5
2002-05-02 07:42:46 51°17.554 2°44.309 264.2 0.5 261.4 17.6
2002-05-02 07:42:51 51°17.554 2°44.308 263.7 0.5 261 17.5
2002-05-02 07:42:56 51°17.554 2°44.307 263.2 0.5 259.5 17.3
2002-05-02 07:43:01 51°17.554 2°44.306 262.8 0.5 258.4 17.3
2002-05-02 07:43:06 51°17.554 2°44.305 262.2 0.5 260.8 17.2
2002-05-02 07:43:11 51°17.553 2°44.304 261.8 0.5 257.6 17.4
2002-05-02 07:43:16 51°17.553 2°44.303 261.2 0.5 259 17.5
2002-05-02 07:43:20 51°17.553 2°44.302 260.8 0.5 256.5 17.6
2002-05-02 07:43:26 51°17.553 2°44.3 260.3 0.5 258 17.6
2002-05-02 07:43:31 51°17.553 2°44.299 259.8 0.6 257.6 17.5
2002-05-02 07:43:36 51°17.553 2°44.298 259.5 0.6 258.8 17.5
2002-05-02 07:43:41 51°17.553 2°44.297 258.8 0.6 257.2 17.3
2002-05-02 07:43:46 51°17.552 2°44.295 258.5 0.6 257.6 17.2
2002-05-02 07:43:50 51°17.552 2°44.294 258.2 0.6 255.5 17.3
2002-05-02 07:43:56 51°17.552 2°44.293 257.5 0.6 256.9 17.4
2002-05-02 07:44:01 51°17.552 2°44.292 257 0.6 254.8 17.5
2002-05-02 07:44:06 51°17.551 2°44.29 256.3 0.6 257.5 17.5
2002-05-02 07:44:11 51°17.551 2°44.289 256 0.6 254.4 17.5
2002-05-02 07:44:16 51°17.551 2°44.288 255.5 0.6 255.7 17.5
2002-05-02 07:44:20 51°17.551 2°44.287 255 0.6 252.4 17.4
2002-05-02 07:44:26 51°17.55 2°44.285 254.5 0.6 254.7 17.2
2002-05-02 07:44:30 51°17.55 2°44.284 254 0.6 255.3 17.2
2002-05-02 07:44:35 51°17.55 2°44.283 253.7 0.6 254.6 17.3
2002-05-02 07:44:40 51°17.55 2°44.282 253.2 0.6 254.4 17.4
2002-05-02 07:44:46 51°17.55 2°44.28 252.8 0.6 252.4 17.4
2002-05-02 07:44:50 51°17.549 2°44.279 252.3 0.6 253 17.5
2002-05-02 07:44:56 51°17.549 2°44.277 252 0.6 252.6 17.2
2002-05-02 07:45:01 51°17.549 2°44.276 251.7 0.7 251.3 17.2
2002-05-02 07:45:06 51°17.548 2°44.274 251.3 0.7 253.2 17.4
2002-05-02 07:45:11 51°17.548 2°44.273 251 0.7 251.1 17.5
2002-05-02 07:45:16 51°17.548 2°44.271 250.7 0.7 252.4 17.6
2002-05-02 07:45:21 51°17.547 2°44.27 250.3 0.7 250 17.5
2002-05-02 07:45:26 51°17.547 2°44.269 250.2 0.7 251.3 17.4
2002-05-02 07:45:30 51°17.547 2°44.268 249.8 0.7 250 17.3
2002-05-02 07:45:35 51°17.547 2°44.266 249.5 0.7 252.1 17.3
2002-05-02 07:45:40 51°17.546 2°44.265 249.2 0.7 249.1 17.4
2002-05-02 07:45:46 51°17.546 2°44.263 248.8 0.7 251.5 17.5
2002-05-02 07:45:51 51°17.546 2°44.262 248.5 0.7 247.6 17.4
2002-05-02 07:45:56 51°17.545 2°44.26 248.2 0.7 253.3 17.3
2002-05-02 07:46:00 51°17.545 2°44.259 247.8 0.7 246 17
2002-05-02 07:46:06 51°17.545 2°44.257 247.5 0.7 252.6 16.9
2002-05-02 07:46:10 51°17.544 2°44.256 247.7 0.7 247.6 17.1
2002-05-02 07:46:16 51°17.544 2°44.254 246.8 0.7 251.5 17.2
2002-05-02 07:46:20 51°17.544 2°44.253 246.8 0.7 249.2 17.3
2002-05-02 07:46:26 51°17.543 2°44.251 246.7 0.7 251.8 17.3
2002-05-02 07:46:31 51°17.543 2°44.25 246.3 0.7 251 17.5
2002-05-02 07:46:36 51°17.543 2°44.248 246.2 0.7 251.3 17.3
2002-05-02 07:46:40 51°17.542 2°44.247 246.2 0.8 249.8 17.2
2002-05-02 07:46:46 51°17.542 2°44.244 246 0.8 250.3 17.2
2002-05-02 07:46:50 51°17.541 2°44.243 246.2 0.8 249.3 17.3
2002-05-02 07:46:55 51°17.541 2°44.241 246.2 0.8 250.1 17.3
2002-05-02 07:47:01 51°17.541 2°44.24 246 0.8 249.2 17.1
2002-05-02 07:47:06 51°17.54 2°44.238 245.8 0.7 247.4 17
2002-05-02 07:47:11 51°17.54 2°44.237 245.7 0.7 249.6 17.1
2002-05-02 07:47:15 51°17.54 2°44.235 245.7 0.8 247.7 17.2
2002-05-02 07:47:20 51°17.539 2°44.234 245.5 0.8 248.1 17.3
2002-05-02 07:47:26 51°17.539 2°44.232 245.5 0.8 247.3 17.4
2002-05-02 07:47:31 51°17.538 2°44.23 245.5 0.8 248.9 17.3
2002-05-02 07:47:36 51°17.538 2°44.229 245.5 0.8 244.9 17.1
2002-05-02 07:47:41 51°17.538 2°44.227 245.3 0.8 249.9 17.1
2002-05-02 07:47:46 51°17.537 2°44.226 245.5 0.8 245.8 17.1
2002-05-02 07:47:51 51°17.537 2°44.224 245.5 0.8 248.9 16.9
2002-05-02 07:47:56 51°17.536 2°44.223 245.5 0.8 244.7 16.8
2002-05-02 07:48:00 51°17.536 2°44.221 245.3 0.8 248 17
2002-05-02 07:48:06 51°17.535 2°44.219 245.3 0.8 248.1 17
2002-05-02 07:48:11 51°17.535 2°44.218 245.3 0.8 247.3 17.1
2002-05-02 07:48:16 51°17.535 2°44.216 245.5 0.8 245.9 17.2
2002-05-02 07:48:21 51°17.534 2°44.214 245.3 0.8 246.1 17.3
2002-05-02 07:48:26 51°17.534 2°44.213 245.2 0.8 245.6 17.3
2002-05-02 07:48:30 51°17.533 2°44.212 245.2 0.8 244.5 17.4
2002-05-02 07:48:36 51°17.533 2°44.21 245.2 0.8 245.8 17
2002-05-02 07:48:40 51°17.532 2°44.209 245.2 0.8 245 16.8
2002-05-02 07:48:45 51°17.532 2°44.207 244.8 0.8 246.4 17.1
2002-05-02 07:48:51 51°17.531 2°44.205 245.2 0.8 245.3 17.3
2002-05-02 07:48:56 51°17.531 2°44.204 245.2 0.8 246 17.2
2002-05-02 07:49:00 51°17.53 2°44.202 245 0.8 246 17.2
2002-05-02 07:49:06 51°17.53 2°44.2 244.8 0.8 246.1 17.3
2002-05-02 07:49:11 51°17.529 2°44.199 245.2 0.8 247.1 17.3
2002-05-02 07:49:16 51°17.529 2°44.197 245.2 0.8 245.8 17.1
2002-05-02 07:49:21 51°17.529 2°44.196 245.3 0.8 246.2 17.1
2002-05-02 07:49:26 51°17.528 2°44.194 245.3 0.8 246.7 17.3
2002-05-02 07:49:31 51°17.528 2°44.192 245.5 0.8 248.1 17.3
2002-05-02 07:49:36 51°17.527 2°44.191 245.3 0.8 246.7 17.2
2002-05-02 07:49:41 51°17.527 2°44.189 245.7 0.8 248.5 17.2
2002-05-02 07:49:46 51°17.527 2°44.188 245.8 0.8 246 17.1
2002-05-02 07:49:51 51°17.526 2°44.186 245.8 0.8 247.5 17.2
2002-05-02 07:49:56 51°17.526 2°44.184 246 0.8 246.9 17.3
2002-05-02 07:50:01 51°17.525 2°44.183 246.3 0.8 247.9 17.2
2002-05-02 07:50:06 51°17.525 2°44.181 246.5 0.8 248.2 17.1
2002-05-02 07:50:11 51°17.525 2°44.18 246.8 0.8 248 17.1
2002-05-02 07:50:16 51°17.524 2°44.178 246.8 0.8 250 17.3
2002-05-02 07:50:21 51°17.524 2°44.176 247.2 0.8 248.4 17.3
2002-05-02 07:50:25 51°17.524 2°44.175 247.3 0.8 249.9 17.1
2002-05-02 07:50:31 51°17.523 2°44.173 247.5 0.8 247.9 17.1
2002-05-02 07:50:36 51°17.523 2°44.171 247.7 0.8 249.5 17.3
2002-05-02 07:50:41 51°17.522 2°44.17 247.8 0.8 248.6 17.2
2002-05-02 07:50:46 51°17.522 2°44.168 247.8 0.8 250.3 17.2
2002-05-02 07:50:50 51°17.522 2°44.167 248.2 0.8 249.2 17.3
2002-05-02 07:50:55 51°17.521 2°44.165 248.3 0.8 250.5 17.3
2002-05-02 07:51:00 51°17.521 2°44.163 248.3 0.8 249.7 17.1
2002-05-02 07:51:06 51°17.521 2°44.162 248.3 0.8 249.6 17.2
2002-05-02 07:51:11 51°17.52 2°44.16 248.7 0.8 249.5 17.3
2002-05-02 07:51:15 51°17.52 2°44.158 248.7 0.8 248.6 17.2
2002-05-02 07:51:20 51°17.52 2°44.157 249 0.8 249.1 17.1
2002-05-02 07:51:26 51°17.519 2°44.155 248.8 0.8 248.9 17.3
2002-05-02 07:51:30 51°17.519 2°44.154 249 0.8 249.8 17.1
2002-05-02 07:51:36 51°17.518 2°44.152 249.2 0.8 251.1 17.1
2002-05-02 07:51:41 51°17.518 2°44.15 249.3 0.8 251.1 17.2
2002-05-02 07:51:46 51°17.517 2°44.148 249.3 0.8 251.1 17.2
2002-05-02 07:51:50 51°17.517 2°44.147 249.3 0.8 248.6 17.3
2002-05-02 07:51:55 51°17.517 2°44.146 249.7 0.8 250.4 17.2
2002-05-02 07:52:00 51°17.516 2°44.144 249.7 0.9 249.9 17.3
2002-05-02 07:52:06 51°17.516 2°44.141 250.3 1.1 251.1 17.2
2002-05-02 07:52:11 51°17.515 2°44.137 252.2 1.4 251.5 17.3
2002-05-02 07:52:16 51°17.514 2°44.132 256.2 1.9 254.2 17.2
2002-05-02 07:52:20 51°17.514 2°44.128 260.8 2.4 256.7 17.1
2002-05-02 07:52:25 51°17.513 2°44.121 266.3 2.7 261 17.1
2002-05-02 07:52:31 51°17.513 2°44.112 271.8 3.3 266.6 17.1
2002-05-02 07:52:35 51°17.514 2°44.105 279.2 3.7 271.3 17.1
2002-05-02 07:52:41 51°17.515 2°44.094 286.7 4.3 280 16.9
2002-05-02 07:52:46 51°17.518 2°44.084 295.5 4.6 286 16.9
2002-05-02 07:52:51 51°17.522 2°44.073 303.7 5 295.5 16.8
2002-05-02 07:52:56 51°17.526 2°44.064 312.7 5.2 301.9 16.9
2002-05-02 07:53:00 51°17.531 2°44.057 321 5.5 311.6 16.9
2002-05-02 07:53:06 51°17.538 2°44.048 329.7 5.7 318.1 16.9
2002-05-02 07:53:11 51°17.546 2°44.042 338 5.8 327.9 16.8
2002-05-02 07:53:16 51°17.554 2°44.038 346.8 5.9 334.9 16.9
2002-05-02 07:53:21 51°17.562 2°44.035 355.2 5.9 344.8 16.8
2002-05-02 07:53:26 51°17.57 2°44.035 4.3 6 351.7 16.4
2002-05-02 07:53:31 51°17.578 2°44.036 13.3 6 359.9 16.4
2002-05-02 07:53:35 51°17.585 2°44.039 22 6 10.4 16.7
2002-05-02 07:53:41 51°17.594 2°44.045 30.3 6 19.3 16.8
2002-05-02 07:53:45 51°17.6 2°44.051 39.5 6 26.4 17
2002-05-02 07:53:51 51°17.607 2°44.061 48.2 6 37.5 16.7
2002-05-02 07:53:56 51°17.612 2°44.072 57.5 5.9 44.9 15.6
2002-05-02 07:54:01 51°17.616 2°44.084 66.5 5.9 56.4 16.3
2002-05-02 07:54:06 51°17.619 2°44.096 75 5.9 64.4 16.7
2002-05-02 07:54:10 51°17.62 2°44.106 84 5.8 76.1 17.1
2002-05-02 07:54:16 51°17.62 2°44.122 93.5 5.8 83.9 17
2002-05-02 07:54:20 51°17.619 2°44.132 101.7 5.8 95.1 17
2002-05-02 07:54:26 51°17.615 2°44.147 111.2 5.8 103.6 17
2002-05-02 07:54:31 51°17.611 2°44.158 119.8 5.9 114.8 17
2002-05-02 07:54:36 51°17.606 2°44.169 127 6.2 124.5 17.2
2002-05-02 07:54:40 51°17.601 2°44.178 130.5 6.4 127.5 17.2
2002-05-02 07:54:46 51°17.594 2°44.192 131.3 6.6 129 17.2
2002-05-02 07:54:51 51°17.588 2°44.204 130.5 6.9 128.8 17.3
2002-05-02 07:54:56 51°17.582 2°44.217 128.3 7.2 127.2 17.3
2002-05-02 07:55:01 51°17.576 2°44.231 126.2 7.3 125 17.1
2002-05-02 07:55:06 51°17.571 2°44.245 122.8 7.4 122.5 17
2002-05-02 07:55:11 51°17.567 2°44.26 119.3 7.6 118.3 17.1
2002-05-02 07:55:16 51°17.562 2°44.276 116 7.7 113.9 17.1
2002-05-02 07:55:20 51°17.559 2°44.289 113.5 7.8 111.9 17.3
2002-05-02 07:55:26 51°17.555 2°44.309 111.8 7.8 110.5 17.1
2002-05-02 07:55:31 51°17.551 2°44.325 110.5 7.9 108.4 17
2002-05-02 07:55:36 51°17.548 2°44.341 109.8 7.7 108.1 17.1
2002-05-02 07:55:40 51°17.547 2°44.352 107.3 7 106.1 17.2
2002-05-02 07:55:46 51°17.544 2°44.368 104.5 6.5 104.5 17.1
2002-05-02 07:55:51 51°17.543 2°44.38 101.3 5.9 100.5 17
2002-05-02 07:55:55 51°17.542 2°44.389 98.8 5.4 97.3 17
2002-05-02 07:56:00 51°17.542 2°44.4 96.2 5.1 95.1 17.2
2002-05-02 07:56:06 51°17.542 2°44.412 94.3 4.8 93.4 17.2
2002-05-02 07:56:11 51°17.542 2°44.421 92.7 4.3 90.9 16.8
2002-05-02 07:56:16 51°17.542 2°44.429 88.7 3.9 88.6 17
2002-05-02 07:56:21 51°17.543 2°44.435 83.7 3.1 83 17.1
2002-05-02 07:56:26 51°17.544 2°44.44 78.3 2.6 78.5 17
2002-05-02 07:56:31 51°17.545 2°44.443 74.2 2 71.9 17
2002-05-02 07:56:36 51°17.545 2°44.446 70.7 1.6 68.6 16.9
2002-05-02 07:56:41 51°17.546 2°44.447 68.5 0.8 61.2 16.8
2002-05-02 07:56:46 51°17.546 2°44.447 65.2 0.5 56.4 16.9
2002-05-02 07:56:51 51°17.547 2°44.448 61.3 0.4 44.9 16.8
2002-05-02 07:56:56 51°17.547 2°44.448 57 0.4 42.3 16.9
2002-05-02 07:57:01 51°17.547 2°44.449 53.8 0.4 34.2 17
2002-05-02 07:57:05 51°17.548 2°44.449 51 0.4 32.6 17
2002-05-02 07:57:11 51°17.549 2°44.45 48.2 0.4 26.3 17
2002-05-02 07:57:16 51°17.549 2°44.45 45.5 0.4 20.3 17
2002-05-02 07:57:21 51°17.55 2°44.45 43.3 0.4 15.8 17
2002-05-02 07:57:26 51°17.55 2°44.45 41.2 0.4 10.6 17
2002-05-02 07:57:31 51°17.551 2°44.45 39.3 0.4 6.3 17
2002-05-02 07:57:36 51°17.552 2°44.45 37.2 0.4 3.6 17
2002-05-02 07:57:40 51°17.552 2°44.45 35.8 0.4 1.6 16.9
2002-05-02 07:57:46 51°17.553 2°44.45 34.3 0.5 357.6 17
2002-05-02 07:57:51 51°17.554 2°44.45 33.2 0.5 355.7 17.1
2002-05-02 07:57:55 51°17.554 2°44.45 32 0.5 354.7 17
2002-05-02 07:58:01 51°17.555 2°44.45 31.2 0.5 350.8 17
2002-05-02 07:58:06 51°17.556 2°44.45 30.3 0.5 351.1 17
2002-05-02 07:58:11 51°17.556 2°44.449 29.5 0.5 347.3 17
2002-05-02 07:58:15 51°17.557 2°44.449 28.8 0.5 346.8 17
2002-05-02 07:58:20 51°17.557 2°44.449 28.3 0.5 345.7 17
2002-05-02 07:58:26 51°17.558 2°44.448 27.8 0.5 345.7 16.9
2002-05-02 07:58:30 51°17.559 2°44.448 27.5 0.5 344.8 16.8
2002-05-02 07:58:36 51°17.559 2°44.448 27 0.5 342.9 16.8
2002-05-02 07:58:41 51°17.56 2°44.448 26.7 0.5 342 16.8
2002-05-02 07:58:46 51°17.561 2°44.447 26.3 0.5 340.7 16.9
2002-05-02 07:58:51 51°17.561 2°44.447 26 0.5 341.8 17
2002-05-02 07:58:56 51°17.562 2°44.447 26 0.5 340.2 17
2002-05-02 07:59:00 51°17.562 2°44.446 25.5 0.5 339.8 17
2002-05-02 07:59:05 51°17.563 2°44.445 25.2 0.5 337.5 17
2002-05-02 07:59:11 51°17.564 2°44.445 25 0.5 339.8 17
2002-05-02 07:59:16 51°17.565 2°44.445 24.8 0.5 336.8 17
2002-05-02 07:59:21 51°17.565 2°44.444 24.5 0.5 337.2 17
2002-05-02 07:59:26 51°17.566 2°44.444 24.3 0.5 336.2 16.9
2002-05-02 07:59:31 51°17.566 2°44.443 24.2 0.5 336.4 16.9